KBIS/BIS METAR and TAF weather

Enter ICAO airport designator
Station Type Date Time Source
KBIS METAR 2018/12/10 16:52 UTC NOAA

KBIS 101652Z 27006KT 10SM CLR M02/M08 A3003 RMK AO2 SLP197 T10171078


Station Type Date Time Source
KBIS Decoded METAR 2018/12/10 16:52 UTC NOAA

BISMARCK MUNICIPAL AIRPORT, ND, United States (KBIS) 46-47N 100-45W 503M
Dec 10, 2018 - 11:52 AM EST / 2018.12.10 1652 UTC
Wind: from the W (270 degrees) at 7 MPH (6 KT):0
Visibility: 10 mile(s):0
Sky conditions: clear
Temperature: 28.9 F (-1.7 C)
Windchill: 21 F (-6 C):1
Dew Point: 18.0 F (-7.8 C)
Relative Humidity: 63%
Pressure (altimeter): 30.03 in. Hg (1016 hPa)
ob: KBIS 101652Z 27006KT 10SM CLR M02/M08 A3003 RMK AO2 SLP197 T10171078
cycle: 17

Station Type Date Time Source
KBIS TAF 2018/12/10 12:33 UTC NOAA

TAF KBIS 101131Z 1012/1112 25006KT P6SM SCT150


Example: see airport list